createdAt,value
2023-03-08T00:01:58.148Z,-4.49
2023-03-08T00:04:26.359Z,-4.52
2023-03-08T00:06:54.496Z,-4.53
2023-03-08T00:09:23.785Z,-4.51
2023-03-08T00:11:51.724Z,-4.49
2023-03-08T00:14:21.021Z,-4.48
2023-03-08T00:16:49.033Z,-4.49
2023-03-08T00:19:17.179Z,-4.52
2023-03-08T00:21:45.312Z,-4.53
2023-03-08T00:24:16.821Z,-4.55
2023-03-08T00:26:46.333Z,-4.58
2023-03-08T00:29:14.345Z,-4.62
2023-03-08T00:31:42.659Z,-4.64
2023-03-08T00:34:10.620Z,-4.65
2023-03-08T00:36:38.647Z,-4.67
2023-03-08T00:39:06.830Z,-4.68
2023-03-08T00:41:34.879Z,-4.69
2023-03-08T00:44:04.657Z,-4.71
2023-03-08T00:46:32.657Z,-4.69
2023-03-08T00:49:00.684Z,-4.70
2023-03-08T00:51:28.865Z,-4.65
2023-03-08T00:53:56.883Z,-4.64
2023-03-08T00:56:24.941Z,-4.65
2023-03-08T00:58:52.941Z,-4.68
2023-03-08T01:01:22.389Z,-4.68
2023-03-08T01:03:50.422Z,-4.64
2023-03-08T01:06:18.703Z,-4.62
2023-03-08T01:08:46.707Z,-4.62
2023-03-08T01:11:18.759Z,-4.61
2023-03-08T01:13:46.938Z,-4.62
2023-03-08T01:16:19.068Z,-4.64
2023-03-08T01:18:48.565Z,-4.68
2023-03-08T01:21:16.635Z,-4.73
2023-03-08T01:23:44.772Z,-4.77
2023-03-08T01:26:13.573Z,-4.81
2023-03-08T01:28:41.592Z,-4.81
2023-03-08T01:31:10.262Z,-4.84
2023-03-08T01:33:38.450Z,-4.90
2023-03-08T01:36:10.982Z,-4.96
2023-03-08T01:38:39.377Z,-4.96
2023-03-08T01:41:08.620Z,-5.00
2023-03-08T01:43:37.553Z,-5.03
2023-03-08T01:46:07.222Z,-5.08
2023-03-08T01:48:36.960Z,-5.09
2023-03-08T01:51:05.983Z,-5.14
2023-03-08T01:53:38.027Z,-5.14
2023-03-08T01:56:07.117Z,-5.17
2023-03-08T01:58:35.259Z,-5.19
2023-03-08T02:01:03.192Z,-5.25
2023-03-08T02:03:31.223Z,-5.27
2023-03-08T02:05:59.204Z,-5.34
2023-03-08T02:08:27.193Z,-5.39
2023-03-08T02:10:57.637Z,-5.44
2023-03-08T02:13:26.398Z,-5.51
2023-03-08T02:15:56.933Z,-5.55
2023-03-08T02:18:25.022Z,-5.60
2023-03-08T02:20:53.036Z,-5.63
2023-03-08T02:23:23.011Z,-5.65
2023-03-08T02:25:52.168Z,-5.73
2023-03-08T02:28:20.759Z,-5.79
2023-03-08T02:30:49.069Z,-5.84
2023-03-08T02:33:17.040Z,-5.88
2023-03-08T02:35:45.185Z,-5.93
2023-03-08T02:38:14.075Z,-5.95
2023-03-08T02:40:43.626Z,-5.96
2023-03-08T02:43:11.889Z,-5.93
2023-03-08T02:45:39.850Z,-5.97
2023-03-08T02:48:07.980Z,-5.98
2023-03-08T02:50:36.693Z,-6.02
2023-03-08T02:53:04.824Z,-6.05
2023-03-08T02:55:36.148Z,-6.08
2023-03-08T02:58:05.849Z,-6.12
2023-03-08T03:00:33.881Z,-6.11
2023-03-08T03:03:01.778Z,-6.16
2023-03-08T03:05:29.835Z,-6.22
2023-03-08T03:07:58.780Z,-6.25
2023-03-08T03:10:27.146Z,-6.32
2023-03-08T03:12:55.266Z,-6.38
2023-03-08T03:15:24.680Z,-6.42
2023-03-08T03:17:52.666Z,-6.48
2023-03-08T03:20:20.749Z,-6.51
2023-03-08T03:22:48.893Z,-6.56
2023-03-08T03:25:16.903Z,-6.59
2023-03-08T03:27:44.806Z,-6.69
2023-03-08T03:30:13.363Z,-6.73
2023-03-08T03:32:42.721Z,-6.75
2023-03-08T03:35:11.051Z,-6.80
2023-03-08T03:37:38.948Z,-6.86
2023-03-08T03:40:07.596Z,-6.83
2023-03-08T03:42:35.576Z,-6.81
2023-03-08T03:45:03.613Z,-6.70
2023-03-08T03:47:31.812Z,-6.51
2023-03-08T03:50:01.346Z,-6.40
2023-03-08T03:52:29.219Z,-6.25
2023-03-08T03:54:57.065Z,-6.20
2023-03-08T03:57:25.265Z,-6.16
2023-03-08T03:59:53.133Z,-6.15
2023-03-08T04:02:21.151Z,-6.05
2023-03-08T04:04:50.233Z,-6.04
2023-03-08T04:07:19.510Z,-5.98
2023-03-08T04:09:47.829Z,-5.89
2023-03-08T04:12:15.772Z,-5.83
2023-03-08T04:14:43.883Z,-5.76
2023-03-08T04:17:11.721Z,-5.75
2023-03-08T04:19:39.875Z,-5.77
2023-03-08T04:22:07.970Z,-5.62
2023-03-08T04:24:37.802Z,-5.59
2023-03-08T04:27:05.844Z,-5.53
2023-03-08T04:29:33.922Z,-5.55
2023-03-08T04:32:01.766Z,-5.58
2023-03-08T04:34:29.890Z,-5.52
2023-03-08T04:36:57.835Z,-5.55
2023-03-08T04:39:26.038Z,-5.47
2023-03-08T04:41:55.706Z,-5.37
2023-03-08T04:44:23.530Z,-5.47
2023-03-08T04:46:51.687Z,-5.50
2023-03-08T04:49:19.620Z,-5.56
2023-03-08T04:51:47.573Z,-5.41
2023-03-08T04:54:15.683Z,-5.41
2023-03-08T04:56:43.741Z,-5.40
2023-03-08T04:59:12.990Z,-5.37
2023-03-08T05:01:42.780Z,-5.30
2023-03-08T05:04:11.488Z,-5.26
2023-03-08T05:06:39.767Z,-5.18
2023-03-08T05:09:07.703Z,-5.09
2023-03-08T05:11:35.638Z,-5.02
2023-03-08T05:14:03.688Z,-4.87
2023-03-08T05:16:33.076Z,-4.78
2023-03-08T05:19:01.097Z,-4.84
2023-03-08T05:21:29.061Z,-4.84
2023-03-08T05:23:57.010Z,-4.71
2023-03-08T05:26:24.900Z,-4.64
2023-03-08T05:28:52.977Z,-4.52
2023-03-08T05:31:21.837Z,-4.46
2023-03-08T05:33:52.228Z,-4.38
2023-03-08T05:36:20.240Z,-4.29
2023-03-08T05:38:48.504Z,-4.22
2023-03-08T05:41:17.685Z,-4.11
2023-03-08T05:43:45.914Z,-4.23
2023-03-08T05:46:15.293Z,-4.03
2023-03-08T05:48:43.298Z,-4.03
2023-03-08T05:51:13.875Z,-3.90
2023-03-08T05:53:42.042Z,-3.76
2023-03-08T05:56:11.133Z,-3.68
2023-03-08T05:58:41.434Z,-3.59
2023-03-08T06:01:13.943Z,-3.54
2023-03-08T06:03:41.933Z,-3.37
2023-03-08T06:06:09.943Z,-3.20
2023-03-08T06:08:39.482Z,-3.12
2023-03-08T06:11:07.699Z,-2.89
2023-03-08T06:13:36.255Z,-2.90
2023-03-08T06:16:05.274Z,-3.07
2023-03-08T06:18:33.691Z,-2.94
2023-03-08T06:21:02.862Z,-2.87
2023-03-08T06:23:31.794Z,-2.86
2023-03-08T06:26:01.811Z,-2.89
2023-03-08T06:28:30.086Z,-2.67
2023-03-08T06:30:58.122Z,-2.57
2023-03-08T06:33:27.483Z,-2.42
2023-03-08T06:35:59.310Z,-2.36
2023-03-08T06:38:29.540Z,-2.11
2023-03-08T06:40:57.892Z,-1.93
2023-03-08T06:43:27.425Z,-1.89
2023-03-08T06:45:55.698Z,-1.75
2023-03-08T06:48:23.922Z,-1.57
2023-03-08T06:50:52.630Z,-1.56
2023-03-08T06:53:20.882Z,-1.55
2023-03-08T06:55:48.976Z,-1.32
2023-03-08T06:58:16.828Z,-1.11
2023-03-08T07:00:46.383Z,-1.14
2023-03-08T07:03:14.847Z,-0.99
2023-03-08T07:05:43.304Z,-0.97
2023-03-08T07:08:11.420Z,-0.96
2023-03-08T07:10:39.396Z,-0.99
2023-03-08T07:13:07.376Z,-1.02
2023-03-08T07:15:37.837Z,-0.94
2023-03-08T07:18:07.390Z,-1.04
2023-03-08T07:20:35.401Z,-1.12
2023-03-08T07:23:03.368Z,-1.05
2023-03-08T07:25:31.389Z,-0.73
2023-03-08T07:27:59.876Z,-0.64
2023-03-08T07:30:28.317Z,-0.59
2023-03-08T07:32:56.478Z,-0.59
2023-03-08T07:35:25.967Z,-0.51
2023-03-08T07:37:54.118Z,-0.31
2023-03-08T07:40:22.185Z,-0.31
2023-03-08T07:42:50.366Z,-0.39
2023-03-08T07:45:18.899Z,-0.39
2023-03-08T07:47:47.008Z,-0.26
2023-03-08T07:50:14.867Z,-0.32
2023-03-08T07:52:44.441Z,-0.30
2023-03-08T07:55:12.972Z,-0.07
2023-03-08T07:57:41.098Z,-0.04
2023-03-08T08:00:09.628Z,0.08
2023-03-08T08:02:38.041Z,0.21
2023-03-08T08:05:06.439Z,0.23
2023-03-08T08:07:34.555Z,0.05
2023-03-08T08:10:04.178Z,0.30
2023-03-08T08:12:32.210Z,0.30
2023-03-08T08:15:00.200Z,0.39
2023-03-08T08:17:28.213Z,0.53
2023-03-08T08:19:56.343Z,0.64
2023-03-08T08:22:24.596Z,0.73
2023-03-08T08:24:52.616Z,0.53
2023-03-08T08:27:21.904Z,0.34
2023-03-08T08:29:51.024Z,0.17
2023-03-08T08:32:19.628Z,0.05
2023-03-08T08:34:47.731Z,0.26
2023-03-08T08:37:15.854Z,0.22
2023-03-08T08:39:43.830Z,0.40
2023-03-08T08:42:11.808Z,0.43
2023-03-08T08:44:41.182Z,0.35
2023-03-08T08:47:09.140Z,0.53
2023-03-08T08:49:37.172Z,0.69
2023-03-08T08:52:05.678Z,0.81
2023-03-08T08:54:34.386Z,0.93
2023-03-08T08:57:02.416Z,1.03
2023-03-08T08:59:30.409Z,1.07
2023-03-08T09:01:59.974Z,0.67
2023-03-08T09:04:28.131Z,0.89
2023-03-08T09:06:56.341Z,0.86
2023-03-08T09:09:24.392Z,1.11
2023-03-08T09:11:55.616Z,0.97
2023-03-08T09:14:24.143Z,1.09
2023-03-08T09:16:52.775Z,1.02
2023-03-08T09:19:22.445Z,0.91
2023-03-08T09:21:50.537Z,1.17
2023-03-08T09:24:18.601Z,0.85
2023-03-08T09:26:46.830Z,1.05
2023-03-08T09:29:14.834Z,1.14
2023-03-08T09:31:45.474Z,1.35
2023-03-08T09:34:15.035Z,1.61
2023-03-08T09:36:44.608Z,1.54
2023-03-08T09:39:14.555Z,1.49
2023-03-08T09:41:53.171Z,1.74
2023-03-08T09:44:44.115Z,1.92
2023-03-08T09:47:18.035Z,1.95
2023-03-08T09:49:48.407Z,1.76
2023-03-08T09:52:19.297Z,1.73
2023-03-08T09:54:48.270Z,1.68
2023-03-08T09:57:19.400Z,1.94
2023-03-08T09:59:50.805Z,1.90
2023-03-08T10:02:23.324Z,2.01
2023-03-08T10:05:11.824Z,2.13
2023-03-08T10:07:49.663Z,2.22
2023-03-08T10:10:30.018Z,2.32
2023-03-08T10:13:05.149Z,2.13
2023-03-08T10:15:35.254Z,2.08
2023-03-08T10:18:05.059Z,2.08
2023-03-08T10:20:35.697Z,1.96
2023-03-08T10:23:11.917Z,1.81
2023-03-08T10:25:40.141Z,1.69
2023-03-08T10:28:12.866Z,1.67
2023-03-08T10:30:42.934Z,1.85
2023-03-08T10:33:12.408Z,2.02
2023-03-08T10:35:51.409Z,2.07
2023-03-08T10:38:20.882Z,2.23
2023-03-08T10:40:48.954Z,2.39
2023-03-08T10:43:26.722Z,2.22
2023-03-08T10:46:05.424Z,2.31
2023-03-08T10:48:34.218Z,2.18
2023-03-08T10:51:03.407Z,2.41
2023-03-08T10:53:33.391Z,2.71
2023-03-08T10:56:02.728Z,2.35
2023-03-08T10:58:35.282Z,2.49
2023-03-08T11:01:04.592Z,2.74
2023-03-08T11:03:32.675Z,2.77
2023-03-08T11:06:01.552Z,2.75
2023-03-08T11:08:30.813Z,2.50
2023-03-08T11:11:05.053Z,2.48
2023-03-08T11:13:35.316Z,2.31
2023-03-08T11:16:10.080Z,2.40
2023-03-08T11:18:47.188Z,2.57
2023-03-08T11:21:21.267Z,2.78
2023-03-08T11:23:53.134Z,2.71
2023-03-08T11:26:24.949Z,3.03
2023-03-08T11:29:03.360Z,3.06
2023-03-08T11:31:35.287Z,3.18
2023-03-08T11:34:19.282Z,3.56
2023-03-08T11:36:49.827Z,3.16
2023-03-08T11:39:20.190Z,3.18
2023-03-08T11:41:57.212Z,3.28
2023-03-08T11:44:45.195Z,3.33
2023-03-08T11:47:28.390Z,2.84
2023-03-08T11:50:06.225Z,2.66
2023-03-08T11:52:39.156Z,2.53
2023-03-08T11:55:20.759Z,2.61
2023-03-08T11:57:54.531Z,2.69
2023-03-08T12:00:24.314Z,2.85
2023-03-08T12:02:52.415Z,2.57
2023-03-08T12:05:26.538Z,2.70
2023-03-08T12:07:57.484Z,2.68
2023-03-08T12:10:27.241Z,2.56
2023-03-08T12:13:00.295Z,2.39
2023-03-08T12:15:31.173Z,2.46
2023-03-08T12:18:04.206Z,2.21
2023-03-08T12:20:36.129Z,2.17
2023-03-08T12:23:09.778Z,2.00
2023-03-08T12:25:40.544Z,2.06
2023-03-08T12:28:13.718Z,1.94
2023-03-08T12:30:50.342Z,1.81
2023-03-08T12:33:19.327Z,1.70
2023-03-08T12:35:52.104Z,1.62
2023-03-08T12:38:31.059Z,1.61
2023-03-08T12:40:59.128Z,1.67
2023-03-08T12:43:32.747Z,1.54
2023-03-08T12:46:03.387Z,1.67
2023-03-08T12:48:32.147Z,1.65
2023-03-08T12:51:03.325Z,1.53
2023-03-08T12:53:33.841Z,1.30
2023-03-08T12:56:03.041Z,1.30
2023-03-08T12:58:33.686Z,1.28
2023-03-08T13:01:03.134Z,1.31
2023-03-08T13:03:37.594Z,1.34
2023-03-08T13:06:15.937Z,1.25
2023-03-08T13:08:46.566Z,1.28
2023-03-08T13:11:16.889Z,1.21
2023-03-08T13:13:50.632Z,1.16
2023-03-08T13:16:30.288Z,0.86
2023-03-08T13:19:03.217Z,0.90
2023-03-08T13:21:35.453Z,0.79
2023-03-08T13:24:08.450Z,0.79
2023-03-08T13:26:54.332Z,0.70
2023-03-08T13:29:23.788Z,0.59
2023-03-08T13:31:52.597Z,0.40
2023-03-08T13:34:28.717Z,0.27
2023-03-08T13:36:57.105Z,0.32
2023-03-08T13:39:26.068Z,0.34
2023-03-08T13:41:54.507Z,0.26
2023-03-08T13:44:25.424Z,0.23
2023-03-08T13:46:55.410Z,0.12
2023-03-08T13:49:25.337Z,0.15
2023-03-08T13:51:54.675Z,0.14
2023-03-08T13:54:29.507Z,0.26
2023-03-08T13:56:57.798Z,0.33
2023-03-08T13:59:27.821Z,0.24
2023-03-08T14:01:56.626Z,0.25
2023-03-08T14:04:25.951Z,0.20
2023-03-08T14:06:55.047Z,0.14
2023-03-08T14:09:23.266Z,0.10
2023-03-08T14:11:57.039Z,0.17
2023-03-08T14:14:27.860Z,0.18
2023-03-08T14:16:57.697Z,0.02
2023-03-08T14:19:26.632Z,-0.06
2023-03-08T14:21:55.756Z,-0.13
2023-03-08T14:24:25.728Z,-0.20
2023-03-08T14:27:03.944Z,-0.12
2023-03-08T14:29:33.064Z,-0.16
2023-03-08T14:32:04.672Z,-0.22
2023-03-08T14:34:36.296Z,-0.23
2023-03-08T14:37:06.595Z,-0.21
2023-03-08T14:39:35.846Z,-0.34
2023-03-08T14:42:11.340Z,-0.29
2023-03-08T14:44:39.584Z,-0.50
2023-03-08T14:47:23.011Z,-0.53
2023-03-08T14:49:58.032Z,-0.43
2023-03-08T14:52:28.117Z,-0.47
2023-03-08T14:54:56.091Z,-0.62
2023-03-08T14:57:24.716Z,-0.57
2023-03-08T14:59:52.928Z,-0.64
2023-03-08T15:02:22.496Z,-0.67
2023-03-08T15:04:50.491Z,-0.79
2023-03-08T15:07:21.674Z,-0.63
2023-03-08T15:09:50.543Z,-0.59
2023-03-08T15:12:19.229Z,-0.65
2023-03-08T15:14:47.266Z,-0.60
2023-03-08T15:17:15.201Z,-0.63
2023-03-08T15:19:44.802Z,-0.66
2023-03-08T15:22:14.605Z,-0.62
2023-03-08T15:24:42.748Z,-0.57
2023-03-08T15:27:14.717Z,-0.53
2023-03-08T15:29:42.756Z,-0.59
2023-03-08T15:32:11.625Z,-0.58
2023-03-08T15:34:40.968Z,-0.79
2023-03-08T15:37:12.705Z,-0.57
2023-03-08T15:39:40.973Z,-0.54
2023-03-08T15:42:08.981Z,-0.56
2023-03-08T15:44:37.026Z,-0.55
2023-03-08T15:47:05.120Z,-0.53
2023-03-08T15:49:33.218Z,-0.48
2023-03-08T15:52:01.235Z,-0.46
2023-03-08T15:54:31.909Z,-0.44
2023-03-08T15:56:59.966Z,-0.41
2023-03-08T15:59:28.011Z,-0.42
2023-03-08T16:01:55.969Z,-0.41
2023-03-08T16:04:24.014Z,-0.44
2023-03-08T16:06:52.037Z,-0.41
2023-03-08T16:09:19.982Z,-0.38
2023-03-08T16:11:49.533Z,-0.37
2023-03-08T16:14:18.801Z,-0.33
2023-03-08T16:16:46.736Z,-0.32
2023-03-08T16:19:14.740Z,-0.34
2023-03-08T16:21:42.857Z,-0.32
2023-03-08T16:24:12.032Z,-0.27
2023-03-08T16:26:40.214Z,-0.25
2023-03-08T16:29:09.612Z,-0.21
2023-03-08T16:31:37.569Z,-0.24
2023-03-08T16:34:05.914Z,-0.13
2023-03-08T16:36:34.016Z,-0.21
2023-03-08T16:39:01.973Z,-0.22
2023-03-08T16:41:30.219Z,-0.27
2023-03-08T16:43:58.506Z,-0.28
2023-03-08T16:46:28.033Z,-0.19
2023-03-08T16:48:56.495Z,-0.19
2023-03-08T16:51:26.032Z,-0.10
2023-03-08T16:53:54.329Z,-0.29
2023-03-08T16:56:23.216Z,-0.03
2023-03-08T16:58:51.333Z,-0.07
2023-03-08T17:01:19.801Z,-0.05
2023-03-08T17:03:49.543Z,0.03
2023-03-08T17:06:18.713Z,-0.01
2023-03-08T17:08:47.149Z,0.05
2023-03-08T17:11:15.938Z,0.09
2023-03-08T17:13:44.264Z,0.10
2023-03-08T17:16:13.165Z,0.10
2023-03-08T17:18:41.228Z,0.06
2023-03-08T17:21:10.844Z,0.13
2023-03-08T17:23:38.748Z,0.13
2023-03-08T17:26:07.456Z,0.23
2023-03-08T17:28:35.601Z,0.23
2023-03-08T17:31:04.182Z,0.24
2023-03-08T17:33:32.163Z,0.30
2023-03-08T17:36:02.313Z,0.30
2023-03-08T17:38:32.135Z,0.38
2023-03-08T17:41:00.185Z,0.41
2023-03-08T17:43:28.137Z,0.38
2023-03-08T17:45:59.674Z,0.49
2023-03-08T17:48:27.592Z,0.51
2023-03-08T17:50:55.561Z,0.54
2023-03-08T17:53:23.609Z,0.53
2023-03-08T17:55:52.979Z,0.57
2023-03-08T17:58:21.056Z,0.59
2023-03-08T18:00:49.021Z,0.62
2023-03-08T18:03:17.081Z,0.64
2023-03-08T18:05:48.818Z,0.64
2023-03-08T18:08:16.741Z,0.71
2023-03-08T18:10:44.898Z,0.70
2023-03-08T18:13:14.256Z,0.66
2023-03-08T18:15:42.210Z,0.64
2023-03-08T18:18:10.212Z,0.75
2023-03-08T18:20:38.170Z,0.74
2023-03-08T18:23:07.285Z,0.71
2023-03-08T18:25:35.581Z,0.79
2023-03-08T18:28:03.515Z,0.79
2023-03-08T18:30:32.854Z,0.80
2023-03-08T18:33:00.816Z,0.78
2023-03-08T18:35:35.008Z,0.76
2023-03-08T18:38:03.422Z,0.80
2023-03-08T18:40:31.755Z,0.75
2023-03-08T18:43:00.939Z,0.83
2023-03-08T18:45:28.934Z,0.84
2023-03-08T18:47:58.241Z,0.94
2023-03-08T18:50:26.269Z,0.90
2023-03-08T18:52:54.276Z,0.86
2023-03-08T18:55:22.308Z,0.90
2023-03-08T18:57:50.360Z,0.86
2023-03-08T19:00:19.120Z,0.86
2023-03-08T19:02:47.113Z,0.85
2023-03-08T19:05:17.716Z,0.94
2023-03-08T19:07:46.801Z,0.89
2023-03-08T19:10:15.396Z,0.92
2023-03-08T19:12:43.936Z,1.02
2023-03-08T19:15:12.700Z,0.98
2023-03-08T19:17:40.999Z,1.01
2023-03-08T19:20:09.993Z,1.04
2023-03-08T19:22:39.895Z,0.99
2023-03-08T19:25:08.367Z,1.03
2023-03-08T19:27:36.412Z,1.00
2023-03-08T19:30:04.548Z,0.97
2023-03-08T19:32:32.500Z,1.06
2023-03-08T19:35:01.925Z,0.99
2023-03-08T19:37:30.509Z,0.96
2023-03-08T19:40:01.299Z,0.98
2023-03-08T19:42:30.740Z,1.08
2023-03-08T19:44:58.839Z,0.88
2023-03-08T19:47:27.002Z,1.07
2023-03-08T19:49:55.069Z,1.03
2023-03-08T19:52:23.180Z,1.00
2023-03-08T19:54:51.151Z,1.08
2023-03-08T19:57:20.564Z,1.01
2023-03-08T19:59:48.564Z,0.98
2023-03-08T20:02:16.449Z,1.08
2023-03-08T20:04:44.504Z,1.09
2023-03-08T20:07:12.460Z,0.99
2023-03-08T20:09:42.454Z,0.88
2023-03-08T20:12:10.724Z,0.95
2023-03-08T20:14:40.304Z,0.75
2023-03-08T20:17:08.327Z,0.73
2023-03-08T20:19:36.847Z,0.66
2023-03-08T20:22:05.510Z,0.67
2023-03-08T20:24:33.493Z,0.57
2023-03-08T20:27:01.458Z,0.54
2023-03-08T20:29:29.504Z,0.42
2023-03-08T20:31:59.480Z,0.54
2023-03-08T20:34:27.895Z,0.43
2023-03-08T20:36:55.971Z,0.31
2023-03-08T20:39:24.118Z,0.32
2023-03-08T20:41:52.068Z,0.19
2023-03-08T20:44:20.118Z,0.09
2023-03-08T20:46:47.954Z,0.15
2023-03-08T20:49:17.276Z,0.26
2023-03-08T20:51:45.259Z,0.09
2023-03-08T20:54:13.752Z,-0.03
2023-03-08T20:56:41.798Z,-0.08
2023-03-08T20:59:10.149Z,-0.09
2023-03-08T21:01:38.896Z,-0.12
2023-03-08T21:04:07.190Z,-0.13
2023-03-08T21:06:36.621Z,-0.26
2023-03-08T21:09:04.931Z,-0.35
2023-03-08T21:11:32.964Z,-0.34
2023-03-08T21:14:01.020Z,-0.54
2023-03-08T21:16:29.872Z,-0.56
2023-03-08T21:18:59.229Z,-0.51
2023-03-08T21:21:29.172Z,-0.60
2023-03-08T21:23:59.694Z,-0.68
2023-03-08T21:26:28.330Z,-0.80
2023-03-08T21:28:56.777Z,-0.78
2023-03-08T21:31:25.124Z,-0.83
2023-03-08T21:33:53.628Z,-0.91
2023-03-08T21:36:21.836Z,-0.89
2023-03-08T21:38:52.353Z,-0.87
2023-03-08T21:41:22.354Z,-0.97
2023-03-08T21:43:50.284Z,-0.96
2023-03-08T21:46:18.866Z,-0.99
2023-03-08T21:48:47.149Z,-0.93
2023-03-08T21:51:15.564Z,-0.94
2023-03-08T21:53:44.281Z,-0.95
2023-03-08T21:56:15.837Z,-0.99
2023-03-08T21:58:45.876Z,-1.05
2023-03-08T22:01:21.329Z,-1.12
2023-03-08T22:03:49.439Z,-1.13
2023-03-08T22:06:17.545Z,-1.23
2023-03-08T22:08:45.847Z,-1.21
2023-03-08T22:11:14.387Z,-1.28
2023-03-08T22:13:42.353Z,-1.24
2023-03-08T22:16:12.021Z,-1.24
2023-03-08T22:18:40.112Z,-1.30
2023-03-08T22:21:08.084Z,-1.36
2023-03-08T22:23:36.033Z,-1.39
2023-03-08T22:26:07.134Z,-1.47
2023-03-08T22:28:35.145Z,-1.46
2023-03-08T22:31:03.062Z,-1.58
2023-03-08T22:33:32.843Z,-1.51
2023-03-08T22:36:00.880Z,-1.51
2023-03-08T22:38:28.783Z,-1.49
2023-03-08T22:40:56.710Z,-1.50
2023-03-08T22:43:24.939Z,-1.58
2023-03-08T22:45:53.166Z,-1.64
2023-03-08T22:48:21.138Z,-1.71
2023-03-08T22:50:58.734Z,-1.64
2023-03-08T22:53:36.584Z,-1.61
2023-03-08T22:56:04.568Z,-1.60
2023-03-08T22:58:32.448Z,-1.58
2023-03-08T23:01:00.514Z,-1.61
2023-03-08T23:03:28.403Z,-1.60
2023-03-08T23:05:57.748Z,-1.55
2023-03-08T23:08:25.720Z,-1.58
2023-03-08T23:10:53.616Z,-1.58
2023-03-08T23:13:33.011Z,-1.65
2023-03-08T23:16:02.204Z,-1.58
2023-03-08T23:18:30.508Z,-1.71
2023-03-08T23:21:03.524Z,-1.70
2023-03-08T23:23:31.697Z,-1.76
2023-03-08T23:25:59.803Z,-1.79
2023-03-08T23:28:27.774Z,-1.82
2023-03-08T23:30:55.742Z,-1.77
2023-03-08T23:33:23.723Z,-1.81
2023-03-08T23:35:51.720Z,-1.85
2023-03-08T23:38:21.016Z,-1.92
2023-03-08T23:40:48.966Z,-1.91
2023-03-08T23:43:16.983Z,-1.93
2023-03-08T23:45:44.874Z,-2.03
2023-03-08T23:48:12.831Z,-1.98
2023-03-08T23:50:40.770Z,-2.01
2023-03-08T23:53:08.750Z,-2.03
2023-03-08T23:55:39.554Z,-2.02
2023-03-08T23:58:07.557Z,-2.04
